Time;durP1;ratioP1;P1;durP2;ratioP2;P2;SDS_P1;SDS_P2;PMS_P1;PMS_P2;Temp;Humidity;BMP_temperature;BMP_pressure;BME280_temperature;BME280_humidity;BME280_pressure;Samples;Min_cycle;Max_cycle;Signal;HPM_P1;HPM_P2
2022/07/12 00:03:13;;;;;;;8.05;5.45;;;;;;;11.74;100.00;102237.16;10498834;28;20032;-74
2022/07/12 00:08:13;;;;;;;10.18;6.35;;;;;;;11.60;100.00;102249.34;10568066;28;20038;-74
2022/07/12 00:13:15;;;;;;;9.57;7.28;;;;;;;11.48;100.00;102244.22;10521425;28;20059;-74
2022/07/12 00:18:15;;;;;;;10.27;7.97;;;;;;;11.34;100.00;102245.03;10550770;28;20035;-74
2022/07/12 00:23:16;;;;;;;8.63;6.95;;;;;;;11.19;100.00;102244.91;10543511;28;20123;-74
2022/07/12 00:28:17;;;;;;;11.20;5.55;;;;;;;11.06;100.00;102233.59;10506699;28;20502;-75
2022/07/12 00:33:17;;;;;;;7.15;5.65;;;;;;;11.10;100.00;102221.63;10526286;28;20108;-74
2022/07/12 00:38:18;;;;;;;9.52;7.60;;;;;;;11.09;100.00;102223.31;10542306;28;20036;-74
2022/07/12 00:43:18;;;;;;;10.93;7.65;;;;;;;11.09;100.00;102217.19;10519704;28;20046;-74
2022/07/12 00:48:19;;;;;;;9.88;7.38;;;;;;;11.05;100.00;102208.19;10507235;28;20092;-74
2022/07/12 00:53:23;;;;;;;9.27;6.80;;;;;;;11.15;100.00;102212.34;10500351;28;20039;-74
2022/07/12 00:58:24;;;;;;;9.27;7.13;;;;;;;11.05;100.00;102208.19;10566587;28;20040;-74
2022/07/12 01:03:25;;;;;;;9.57;6.55;;;;;;;11.04;100.00;102205.47;10529778;28;20035;-74
2022/07/12 01:08:26;;;;;;;10.32;7.47;;;;;;;10.92;100.00;102197.69;10514159;28;20031;-74
2022/07/12 01:13:27;;;;;;;9.73;8.20;;;;;;;10.86;100.00;102208.69;10516067;28;20051;-74
2022/07/12 01:18:27;;;;;;;10.25;7.78;;;;;;;10.75;100.00;102207.94;10513631;28;20497;-74
2022/07/12 01:23:28;;;;;;;12.27;7.93;;;;;;;10.78;100.00;102202.91;10514668;28;20032;-73
2022/07/12 01:28:29;;;;;;;9.38;7.55;;;;;;;10.74;100.00;102213.06;10491861;28;20119;-74
2022/07/12 01:33:29;;;;;;;11.43;7.07;;;;;;;10.75;100.00;102207.03;10542684;28;20035;-74
2022/07/12 01:38:30;;;;;;;10.18;6.78;;;;;;;10.84;100.00;102211.19;10512969;28;20040;-74
2022/07/12 01:43:31;;;;;;;9.32;6.63;;;;;;;10.73;100.00;102214.78;10524597;28;20032;-74
2022/07/12 01:48:32;;;;;;;11.90;8.07;;;;;;;10.61;100.00;102220.09;10531126;28;20082;-74
2022/07/12 01:53:33;;;;;;;9.60;7.35;;;;;;;10.62;100.00;102226.22;10496622;28;20540;-75
2022/07/12 01:58:33;;;;;;;8.55;6.97;;;;;;;10.51;100.00;102233.34;10512058;28;20048;-74
2022/07/12 02:03:35;;;;;;;9.75;6.80;;;;;;;10.39;100.00;102238.56;10532575;28;20035;-75
2022/07/12 02:08:36;;;;;;;9.13;7.20;;;;;;;10.30;100.00;102233.63;10538841;28;20061;-74
2022/07/12 02:13:36;;;;;;;9.23;6.60;;;;;;;10.25;100.00;102222.81;10503521;28;20060;-75
2022/07/12 02:18:37;;;;;;;65.82;11.10;;;;;;;10.27;100.00;102236.00;10479706;28;20048;-76
2022/07/12 02:23:37;;;;;;;14.50;10.20;;;;;;;10.34;100.00;102230.41;10474132;28;20036;-75
2022/07/12 02:28:38;;;;;;;11.18;8.57;;;;;;;10.33;100.00;102228.59;10532674;28;20086;-74
2022/07/12 02:33:38;;;;;;;11.40;8.73;;;;;;;10.29;100.00;102227.47;10514766;28;20100;-75
2022/07/12 02:38:39;;;;;;;10.02;7.32;;;;;;;10.16;100.00;102230.00;10544408;28;20036;-74
2022/07/12 02:43:39;;;;;;;13.35;8.80;;;;;;;10.01;100.00;102228.91;10560635;28;20046;-74
2022/07/12 02:48:40;;;;;;;13.75;9.00;;;;;;;10.07;100.00;102237.19;10513498;28;20040;-74
2022/07/12 02:53:41;;;;;;;12.73;9.07;;;;;;;9.96;100.00;102229.47;10519402;28;20040;-74
2022/07/12 02:58:41;;;;;;;11.10;7.05;;;;;;;9.91;100.00;102230.84;10525823;28;20135;-74
2022/07/12 03:03:42;;;;;;;12.20;9.00;;;;;;;10.03;100.00;102230.84;10509925;28;20042;-74
2022/07/12 03:08:43;;;;;;;11.40;8.00;;;;;;;10.03;100.00;102229.94;10469740;28;20442;-75
2022/07/12 03:13:43;;;;;;;11.35;8.23;;;;;;;9.94;100.00;102231.09;10525634;28;20044;-74
2022/07/12 03:18:43;;;;;;;14.43;9.55;;;;;;;9.94;100.00;102240.66;10511626;28;20135;-73
2022/07/12 03:23:44;;;;;;;13.38;9.27;;;;;;;9.76;100.00;102234.97;10517436;28;20071;-74
2022/07/12 03:28:44;;;;;;;12.05;9.02;;;;;;;9.77;100.00;102232.50;10531929;28;20036;-74
2022/07/12 03:33:45;;;;;;;13.00;8.77;;;;;;;9.69;100.00;102242.38;10568864;28;20044;-74
2022/07/12 03:38:45;;;;;;;10.90;8.57;;;;;;;9.86;100.00;102232.22;10515961;28;20100;-75
2022/07/12 03:43:46;;;;;;;11.63;8.38;;;;;;;9.76;100.00;102241.13;10537799;28;20120;-74
2022/07/12 03:48:46;;;;;;;13.55;9.32;;;;;;;9.73;100.00;102238.28;10493063;28;20064;-74
2022/07/12 03:53:47;;;;;;;12.02;7.97;;;;;;;9.67;100.00;102238.75;10531315;28;20093;-75
2022/07/12 03:58:48;;;;;;;12.48;7.53;;;;;;;9.62;100.00;102245.34;10527972;28;20093;-77
2022/07/12 04:03:49;;;;;;;14.98;8.38;;;;;;;9.62;100.00;102244.44;10526842;28;20101;-74
2022/07/12 04:08:49;;;;;;;9.93;8.23;;;;;;;9.63;100.00;102244.53;10538843;28;20445;-74
2022/07/12 04:13:50;;;;;;;10.52;8.80;;;;;;;9.72;100.00;102246.94;10515998;28;20046;-74
2022/07/12 04:18:50;;;;;;;13.13;7.95;;;;;;;9.80;100.00;102243.19;10484239;28;20067;-74
2022/07/12 04:23:51;;;;;;;13.48;9.98;;;;;;;9.86;100.00;102244.41;10504531;28;20119;-74
2022/07/12 04:28:52;;;;;;;11.00;8.50;;;;;;;9.94;100.00;102243.25;10525401;28;20035;-74
2022/07/12 04:33:52;;;;;;;11.13;8.70;;;;;;;10.17;100.00;102239.66;10523687;28;20126;-74
2022/07/12 04:38:53;;;;;;;14.15;8.02;;;;;;;10.50;100.00;102235.03;10508006;28;20040;-75
2022/07/12 04:43:53;;;;;;;9.43;8.10;;;;;;;10.89;100.00;102239.38;10528354;28;20088;-75
2022/07/12 04:48:53;;;;;;;9.20;6.72;;;;;;;11.04;100.00;102232.56;10540066;28;20141;-75
2022/07/12 04:53:54;;;;;;;11.68;7.18;;;;;;;10.99;100.00;102237.53;10493619;28;20062;-74
2022/07/12 04:58:55;;;;;;;12.63;6.80;;;;;;;10.96;100.00;102249.47;10487571;28;20038;-74
2022/07/12 05:03:55;;;;;;;7.35;6.15;;;;;;;10.95;100.00;102253.84;10524448;28;20039;-74
2022/07/12 05:08:56;;;;;;;10.02;6.68;;;;;;;11.29;100.00;102256.13;10529724;28;20447;-74
2022/07/12 05:13:57;;;;;;;12.88;5.13;;;;;;;12.18;100.00;102260.13;10546441;28;20161;-74
2022/07/12 05:18:57;;;;;;;6.38;5.13;;;;;;;12.99;100.00;102254.53;10512696;28;20064;-74
2022/07/12 05:23:58;;;;;;;5.57;3.80;;;;;;;13.70;100.00;102247.25;10526939;28;20036;-75
2022/07/12 05:28:58;;;;;;;4.25;3.42;;;;;;;14.36;100.00;102246.47;10519172;28;20040;-74
2022/07/12 05:34:00;;;;;;;6.22;3.22;;;;;;;15.08;99.76;102251.13;10509651;28;20059;-74
2022/07/12 05:39:00;;;;;;;5.33;2.53;;;;;;;16.20;91.30;102264.50;10529096;28;20043;-76
2022/07/12 05:44:01;;;;;;;4.13;2.73;;;;;;;17.10;85.05;102257.94;10498818;28;20105;-77
2022/07/12 05:49:01;;;;;;;4.57;3.67;;;;;;;18.40;77.25;102259.63;10511409;28;20047;-78
2022/07/12 05:54:04;;;;;;;4.73;3.87;;;;;;;18.95;76.19;102275.75;10528376;28;20043;-75
2022/07/12 05:59:04;;;;;;;6.15;3.83;;;;;;;19.36;75.26;102277.19;10523053;28;20044;-75
2022/07/12 06:04:05;;;;;;;6.03;4.20;;;;;;;20.44;72.23;102281.47;10513715;28;20047;-75
2022/07/12 06:09:06;;;;;;;5.88;3.85;;;;;;;20.80;70.13;102277.19;10561521;28;20054;-76
2022/07/12 06:14:06;;;;;;;11.77;9.43;;;;;;;21.46;69.44;102279.78;10555496;28;20042;-76
2022/07/12 06:19:07;;;;;;;6.03;5.03;;;;;;;22.49;65.89;102283.06;10484421;28;20028;-76
2022/07/12 06:24:07;;;;;;;8.53;7.37;;;;;;;23.28;64.22;102293.50;10524182;28;20043;-75
2022/07/12 06:29:08;;;;;;;11.60;5.53;;;;;;;23.63;61.52;102286.94;10530691;28;20038;-76
2022/07/12 06:34:08;;;;;;;6.73;4.87;;;;;;;22.94;63.72;102300.88;10511645;28;20399;-76
2022/07/12 06:39:09;;;;;;;9.40;5.57;;;;;;;24.07;59.00;102298.28;10525664;28;20074;-77
2022/07/12 06:44:09;;;;;;;6.33;5.20;;;;;;;24.85;59.77;102311.78;10530617;28;20063;-77
2022/07/12 06:49:10;;;;;;;8.27;4.60;;;;;;;25.26;57.94;102294.34;10453478;28;20047;-78
2022/07/12 06:54:10;;;;;;;6.83;4.60;;;;;;;25.24;55.95;102304.16;10571333;28;20485;-77
2022/07/12 06:59:11;;;;;;;5.03;3.50;;;;;;;26.77;50.73;102304.22;10530377;28;20050;-76
2022/07/12 07:04:12;;;;;;;4.47;3.75;;;;;;;26.66;49.23;102306.88;10526556;28;20066;-79
2022/07/12 07:09:12;;;;;;;5.07;3.95;;;;;;;26.90;48.24;102307.84;10528258;28;20130;-79
2022/07/12 07:14:13;;;;;;;7.32;4.13;;;;;;;28.02;45.47;102313.25;10509638;28;20042;-79
2022/07/12 07:19:13;;;;;;;5.03;3.30;;;;;;;27.20;48.35;102310.59;10517009;28;20043;-78
2022/07/12 07:24:14;;;;;;;3.35;2.97;;;;;;;27.15;47.44;102313.28;10522064;28;20055;-80
2022/07/12 07:34:33;;;;;;;3.25;2.22;;;;;;;28.99;41.99;102303.88;10525289;28;19923;-77
2022/07/12 07:39:34;;;;;;;;;;;;;;;29.11;42.88;102308.31;10551030;28;20122;-78
2022/07/12 07:44:34;;;;;;;4.13;2.87;;;;;;;29.37;41.30;102296.41;10482083;28;19922;-78
2022/07/12 07:49:34;;;;;;;;;;;;;;;28.38;44.22;102318.56;10541581;28;20068;-78
2022/07/12 07:54:35;;;;;;;3.83;2.27;;;;;;;29.19;42.83;102307.34;10523023;28;19926;-77
2022/07/12 07:59:35;;;;;;;;;;;;;;;30.37;42.66;102309.78;10496750;28;20544;-79
2022/07/12 08:04:36;;;;;;;5.47;3.47;;;;;;;30.20;39.20;102307.31;10508022;28;19964;-79
2022/07/12 08:09:36;;;;;;;8.48;3.50;;;;;;;29.78;41.63;102312.25;10523449;28;20079;-77
2022/07/12 08:14:37;;;;;;;;;;;;;;;28.94;42.32;102296.75;10504360;28;20044;-81
2022/07/12 08:19:37;;;;;;;5.10;3.67;;;;;;;29.76;42.52;102292.50;10526905;28;19955;-78
2022/07/12 08:24:38;;;;;;;5.07;3.00;;;;;;;30.13;40.01;102284.88;10525866;28;20123;-78
2022/07/12 08:29:38;;;;;;;;;;;;;;;29.72;42.75;102281.72;10526244;28;20048;-79
2022/07/12 08:34:39;;;;;;;4.60;3.53;;;;;;;30.21;39.81;102268.59;10525136;28;19969;-78
2022/07/12 08:39:40;;;;;;;;;;;;;;;29.77;39.73;102276.28;10526089;28;20540;-78
2022/07/12 08:44:40;;;;;;;8.87;6.70;;;;;;;30.04;39.26;102279.59;10525375;28;19924;-79
2022/07/12 08:49:41;;;;;;;8.60;6.97;;;;;;;29.35;40.14;102271.25;10490757;28;20483;-78
2022/07/12 08:54:41;;;;;;;9.88;7.78;;;;;;;29.49;40.22;102283.75;10490891;28;20035;-79
2022/07/12 08:59:42;;;;;;;7.45;6.43;;;;;;;29.32;42.39;102282.06;10506415;28;20375;-78
2022/07/12 09:04:42;;;;;;;6.38;5.43;;;;;;;29.73;39.85;102279.91;10510405;27;20551;-78
2022/07/12 09:09:43;;;;;;;7.35;5.97;;;;;;;30.18;38.24;102295.66;10547193;27;20077;-78
2022/07/12 09:14:43;;;;;;;;;;;;;;;31.72;37.68;102291.53;10567163;27;20476;-78
2022/07/12 09:19:55;;;;;;;8.13;6.47;;;;;;;31.11;37.53;102293.44;10579809;27;20014;-77
2022/07/12 09:24:55;;;;;;;6.35;5.03;;;;;;;30.93;37.47;102313.56;10534786;28;20044;-78
2022/07/12 09:29:56;;;;;;;;;;;;;;;30.56;36.49;102304.16;10515361;28;20082;-79
2022/07/12 09:40:16;;;;;;;4.45;2.63;;;;;;;31.44;39.47;102308.25;10500511;28;20427;-78
2022/07/12 09:45:17;;;;;;;;;;;;;;;30.53;38.26;102304.19;10525910;28;20039;-79
2022/07/12 09:50:17;;;;;;;4.25;3.33;;;;;;;31.13;37.44;102299.72;10521707;28;20264;-76
2022/07/12 09:55:18;;;;;;;;;;;;;;;31.63;33.93;102286.28;10483893;28;20462;-76
2022/07/12 10:00:19;;;;;;;4.15;3.20;;;;;;;31.07;34.50;102287.22;10521073;28;19932;-76
2022/07/12 10:05:19;;;;;;;5.35;3.33;;;;;;;32.47;33.62;102293.66;10511534;28;20039;-78
2022/07/12 10:10:19;;;;;;;;;;;;;;;32.99;32.28;102292.53;10515246;28;20560;-77
2022/07/12 10:15:21;;;;;;;3.13;2.70;;;;;;;33.31;30.86;102288.09;10534128;28;19931;-77
2022/07/12 10:20:28;;;;;;;4.10;3.30;;;;;;;32.55;33.88;102292.59;10543759;27;20060;-77
2022/07/12 10:25:30;;;;;;;2.58;1.83;;;;;;;32.34;32.05;102292.13;10523534;27;20043;-78
2022/07/12 10:30:31;;;;;;;4.65;2.75;;;;;;;32.97;31.07;102295.25;10532866;27;20086;-78
2022/07/12 10:35:32;;;;;;;;;;;;;;;33.21;29.22;102295.56;10491968;28;20137;-78
2022/07/12 10:40:36;;;;;;;3.53;1.80;;;;;;;33.14;28.23;102270.44;10536115;28;19920;-77
2022/07/12 10:45:40;;;;;;;3.85;2.10;;;;;;;32.70;30.53;102284.09;10548636;27;20028;-78
2022/07/12 10:50:44;;;;;;;3.90;1.70;;;;;;;33.33;29.43;102264.53;10509692;27;20127;-77
2022/07/12 10:56:21;;;;;;;4.50;1.83;;;;;;;32.21;30.36;102277.97;10545069;28;20051;-78
2022/07/12 11:01:23;;;;;;;4.55;1.98;;;;;;;31.97;30.64;102271.22;10397839;28;20488;-76
2022/07/12 11:06:24;;;;;;;3.83;2.03;;;;;;;31.63;32.08;102257.41;10484109;28;20392;-78
2022/07/12 11:11:29;;;;;;;3.03;1.70;;;;;;;32.21;31.40;102261.72;10447183;28;20135;-78
2022/07/12 11:16:31;;;;;;;2.42;1.25;;;;;;;32.68;31.02;102263.41;10487882;28;20488;-77
2022/07/12 11:21:32;;;;;;;1.95;1.50;;;;;;;32.69;31.28;102265.19;10479821;28;20530;-77
2022/07/12 11:26:32;;;;;;;2.42;1.73;;;;;;;32.41;32.67;102252.28;10467453;28;20167;-77
2022/07/12 11:31:33;;;;;;;2.22;1.10;;;;;;;33.49;31.72;102248.75;10484785;28;20484;-77
2022/07/12 11:36:33;;;;;;;;;;;;;;;33.07;30.82;102239.00;10468738;28;20040;-77
2022/07/12 11:41:34;;;;;;;4.63;1.43;;;;;;;33.03;29.39;102226.44;10485713;28;20257;-77
2022/07/12 11:46:34;;;;;;;7.70;2.25;;;;;;;32.61;30.77;102239.16;10468911;28;20267;-76
2022/07/12 11:51:35;;;;;;;5.47;1.48;;;;;;;33.18;28.69;102238.69;10500499;28;20113;-78
2022/07/12 11:56:36;;;;;;;;;;;;;;;33.82;29.82;102237.88;10486462;28;20032;-77
2022/07/12 12:01:36;;;;;;;3.23;2.03;;;;;;;33.23;30.34;102220.47;10526885;28;19928;-77
2022/07/12 12:06:37;;;;;;;;;;;;;;;32.87;31.98;102225.94;10526814;28;20082;-78
2022/07/12 12:11:37;;;;;;;3.80;1.40;;;;;;;33.64;30.84;102228.47;10520868;28;19920;-79
2022/07/12 12:16:38;;;;;;;;;;;;;;;33.30;28.81;102227.53;10492320;28;20068;-78
2022/07/12 12:21:38;;;;;;;2.03;1.13;;;;;;;32.29;29.47;102235.34;10526395;28;19916;-78
2022/07/12 12:26:39;;;;;;;3.53;1.45;;;;;;;32.00;34.66;102225.13;10507455;28;20131;-77
2022/07/12 12:31:39;;;;;;;3.30;1.38;;;;;;;32.97;28.69;102226.59;10508684;28;20488;-76
2022/07/12 12:36:40;;;;;;;;;;;;;;;33.70;28.85;102219.22;10491751;28;20040;-76
2022/07/12 12:41:41;;;;;;;3.30;1.83;;;;;;;32.56;29.82;102214.00;10506689;28;20302;-76
2022/07/12 12:46:55;;;;;;;;;;;;;;;33.60;28.67;102205.06;10539481;28;20127;-77
2022/07/12 12:51:58;;;;;;;2.55;1.20;;;;;;;33.46;31.00;102198.19;10513016;28;20383;-75
2022/07/12 12:56:58;;;;;;;1.48;1.08;;;;;;;33.35;27.88;102179.44;10485051;28;20048;-76
2022/07/12 13:01:59;;;;;;;;;;;;;;;31.84;30.89;102187.56;10465410;28;20122;-76
2022/07/12 13:06:59;;;;;;;4.70;2.00;;;;;;;31.69;29.92;102194.19;10483833;28;20007;-76
2022/07/12 13:12:00;;;;;;;2.63;1.30;;;;;;;31.38;32.19;102196.56;10447874;28;20111;-77
2022/07/12 13:17:01;;;;;;;;;;;;;;;31.23;31.25;102189.66;10448128;28;20042;-76
2022/07/12 13:22:02;;;;;;;2.07;1.40;;;;;;;30.59;33.72;102186.19;10447550;28;19921;-76
2022/07/12 13:27:02;;;;;;;3.55;1.23;;;;;;;31.54;33.11;102187.25;10482030;28;20036;-77
2022/07/12 13:32:03;;;;;;;3.95;1.58;;;;;;;31.98;30.92;102184.59;10463482;28;20033;-76
2022/07/12 13:37:04;;;;;;;;;;;;;;;31.21;32.21;102186.97;10506714;28;20044;-77
2022/07/12 13:42:04;;;;;;;3.63;1.43;;;;;;;31.57;34.09;102191.72;10506496;28;20276;-76
2022/07/12 13:47:05;;;;;;;3.05;1.50;;;;;;;32.68;32.23;102190.25;10488402;28;20419;-76
2022/07/12 13:52:06;;;;;;;6.40;1.50;;;;;;;32.39;30.54;102186.41;10521688;28;20079;-76
2022/07/12 13:57:07;;;;;;;;;;;;;;;32.26;30.23;102185.75;10505600;28;20116;-76
2022/07/12 14:02:08;;;;;;;6.85;1.50;;;;;;;32.15;31.50;102186.03;10504450;28;20295;-76
2022/07/12 14:07:08;;;;;;;2.03;1.25;;;;;;;32.63;31.42;102175.00;10505463;28;20032;-76
2022/07/12 14:12:09;;;;;;;;;;;;;;;33.04;28.06;102171.28;10458962;28;20048;-76
2022/07/12 14:17:10;;;;;;;4.10;1.10;;;;;;;32.98;29.80;102169.59;10508056;28;19967;-75
2022/07/12 14:22:10;;;;;;;;;;;;;;;32.64;30.23;102165.03;10471505;28;20041;-76
2022/07/12 14:27:10;;;;;;;2.23;1.10;;;;;;;32.22;28.57;102163.28;10501645;28;20011;-76
2022/07/12 14:32:11;;;;;;;;;;;;;;;32.29;30.75;102162.22;10507331;28;20392;-76
2022/07/12 14:37:11;;;;;;;4.63;1.13;;;;;;;32.46;28.41;102156.41;10521647;28;20007;-76
2022/07/12 14:42:12;;;;;;;2.03;1.20;;;;;;;31.61;30.98;102158.28;10456029;28;20478;-75
2022/07/12 14:47:14;;;;;;;2.90;1.77;;;;;;;31.08;34.05;102156.53;10478955;28;20487;-75
2022/07/12 14:52:16;;;;;;;5.75;1.50;;;;;;;30.82;33.64;102154.28;10511319;28;20032;-75
2022/07/12 14:57:17;;;;;;;;;;;;;;;30.77;35.33;102152.56;10499062;28;20035;-75
2022/07/12 15:02:17;;;;;;;5.35;2.28;;;;;;;30.69;32.89;102156.31;10529143;28;19924;-74
2022/07/12 15:07:18;;;;;;;3.28;1.55;;;;;;;30.09;37.28;102148.19;10552389;28;20028;-74
2022/07/12 15:12:19;;;;;;;3.67;1.33;;;;;;;29.27;35.63;102136.53;10538045;28;20494;-74
2022/07/12 15:17:19;;;;;;;5.57;1.93;;;;;;;28.93;40.71;102133.31;10552331;28;20031;-74
2022/07/12 15:22:20;;;;;;;7.30;1.77;;;;;;;28.52;43.02;102133.59;10567967;28;20039;-76
2022/07/12 15:27:21;;;;;;;2.37;1.97;;;;;;;28.14;43.30;102130.25;10503132;28;20071;-74
2022/07/12 15:32:22;;;;;;;;;;;;;;;27.96;37.00;102123.16;10527954;28;20036;-74
2022/07/12 15:37:22;;;;;;;2.43;1.73;;;;;;;27.94;45.51;102111.53;10530102;28;19976;-75
2022/07/12 15:42:23;;;;;;;8.30;6.27;;;;;;;27.90;46.30;102108.84;10506966;28;20094;-78
2022/07/12 15:47:24;;;;;;;17.77;11.93;;;;;;;28.06;45.23;102107.84;10487504;28;20044;-77
2022/07/12 15:57:44;;;;;;;3.17;1.67;;;;;;;28.14;41.22;102089.91;10505288;28;20040;-76
2022/07/12 16:02:44;;;;;;;5.83;2.70;;;;;;;27.95;46.62;102096.25;10493886;28;20431;-77
2022/07/12 16:07:45;;;;;;;4.67;2.33;;;;;;;27.37;48.09;102098.28;10524806;28;20064;-76
2022/07/12 16:12:45;;;;;;;4.53;2.03;;;;;;;27.10;51.33;102094.75;10489023;28;20475;-76
2022/07/12 16:17:49;;;;;;;4.13;1.90;;;;;;;26.89;53.16;102096.56;10487274;28;20032;-77
2022/07/12 16:22:50;;;;;;;5.65;2.55;;;;;;;26.61;50.14;102087.63;10498434;28;20496;-77
2022/07/12 16:27:50;;;;;;;4.20;2.10;;;;;;;26.47;50.77;102084.94;10502870;28;20040;-78
2022/07/12 16:32:51;;;;;;;5.30;2.77;;;;;;;26.32;53.42;102073.28;10537361;28;20050;-75
2022/07/12 16:37:54;;;;;;;5.00;1.58;;;;;;;26.32;53.28;102073.28;10484005;28;20752;-75
2022/07/12 16:42:54;;;;;;;4.70;1.65;;;;;;;26.27;52.13;102076.88;10533203;28;20438;-77
2022/07/12 16:47:55;;;;;;;3.50;2.13;;;;;;;26.15;53.36;102064.31;10538053;28;20063;-76
2022/07/12 16:52:56;;;;;;;6.77;2.10;;;;;;;25.99;57.27;102066.06;10510785;28;20484;-77
2022/07/12 16:57:56;;;;;;;3.97;2.00;;;;;;;26.12;56.57;102061.59;10479811;28;20160;-76
2022/07/12 17:02:57;;;;;;;2.83;2.00;;;;;;;26.14;55.75;102065.19;10511829;28;20122;-76
2022/07/12 17:07:57;;;;;;;4.27;1.70;;;;;;;25.97;52.17;102066.03;10522242;28;20080;-75
2022/07/12 17:12:58;;;;;;;7.87;2.30;;;;;;;25.74;58.92;102068.69;10535446;28;20127;-75
2022/07/12 17:17:58;;;;;;;5.10;2.20;;;;;;;25.51;58.89;102066.81;10536841;28;20031;-75
2022/07/12 17:22:59;;;;;;;3.70;2.50;;;;;;;25.43;61.49;102064.03;10510746;28;20084;-76
2022/07/12 17:28:00;;;;;;;5.70;2.60;;;;;;;25.41;64.59;102064.94;10520082;28;20484;-76
2022/07/12 17:33:01;;;;;;;3.57;2.60;;;;;;;25.22;62.93;102063.03;10526882;28;20578;-74
2022/07/12 17:38:01;;;;;;;4.13;2.80;;;;;;;25.18;65.35;102074.63;10523387;28;20040;-74
2022/07/12 17:43:02;;;;;;;5.53;3.17;;;;;;;25.00;69.84;102074.50;10501185;28;20058;-76
2022/07/12 17:48:03;;;;;;;5.80;3.87;;;;;;;24.60;71.23;102075.09;10522722;28;20053;-76
2022/07/12 17:53:04;;;;;;;4.47;2.60;;;;;;;24.14;65.56;102070.19;10520740;28;20048;-76
2022/07/12 18:03:23;;;;;;;4.55;2.05;;;;;;;23.65;67.32;102084.75;10536940;28;20040;-76
2022/07/12 18:08:24;;;;;;;2.90;1.83;;;;;;;23.39;65.76;102081.75;10521613;28;20036;-76
2022/07/12 18:18:44;;;;;;;7.30;2.28;;;;;;;22.97;65.91;102079.34;10507335;28;20048;-76
2022/07/12 18:23:46;;;;;;;3.13;2.57;;;;;;;22.83;66.94;102078.25;10498824;28;20040;-76
2022/07/12 18:28:47;;;;;;;6.70;3.80;;;;;;;22.65;66.45;102079.75;10521871;28;20036;-76
2022/07/12 18:33:48;;;;;;;4.60;2.63;;;;;;;22.48;66.59;102078.56;10497198;28;20513;-77
2022/07/12 18:38:49;;;;;;;4.47;3.00;;;;;;;22.42;65.85;102076.63;10473147;28;20077;-76
2022/07/12 18:43:49;;;;;;;5.23;3.03;;;;;;;22.30;68.00;102079.97;10535872;28;20036;-76
2022/07/12 18:48:50;;;;;;;4.43;2.53;;;;;;;22.18;69.40;102083.31;10528475;28;20174;-76
2022/07/12 18:53:52;;;;;;;7.00;3.57;;;;;;;22.00;69.79;102074.09;10502550;28;20471;-76
2022/07/12 18:58:53;;;;;;;7.05;2.60;;;;;;;21.90;72.00;102065.91;10509755;28;20043;-76
2022/07/12 19:03:54;;;;;;;5.38;3.20;;;;;;;21.73;73.52;102061.13;10514186;28;20079;-75
2022/07/12 19:08:54;;;;;;;6.53;3.20;;;;;;;21.60;72.50;102059.94;10525408;28;20036;-77
2022/07/12 19:13:55;;;;;;;8.43;2.73;;;;;;;21.52;72.40;102056.22;10534114;28;20054;-76
2022/07/12 19:18:55;;;;;;;6.87;2.50;;;;;;;21.35;70.96;102061.19;10509257;28;20075;-76
2022/07/12 19:23:56;;;;;;;9.10;3.33;;;;;;;21.19;73.15;102063.50;10523479;28;20101;-77
2022/07/12 19:28:56;;;;;;;5.57;3.00;;;;;;;21.03;72.42;102066.69;10526650;28;20052;-77
2022/07/12 19:33:58;;;;;;;4.93;3.13;;;;;;;20.90;75.02;102068.13;10504227;28;20036;-77
2022/07/12 19:38:59;;;;;;;5.30;2.97;;;;;;;20.77;75.95;102070.47;10492152;28;20040;-76
2022/07/12 19:43:59;;;;;;;3.10;2.80;;;;;;;20.66;75.07;102070.22;10514181;28;20040;-76
2022/07/12 19:49:00;;;;;;;6.45;3.25;;;;;;;20.51;75.25;102069.81;10508231;28;20488;-75
2022/07/12 19:54:00;;;;;;;6.82;3.03;;;;;;;20.36;75.16;102073.88;10547523;28;20582;-75
2022/07/12 19:59:02;;;;;;;4.82;2.70;;;;;;;20.23;77.68;102067.31;10549593;28;20444;-77
2022/07/12 20:04:03;;;;;;;6.25;3.78;;;;;;;20.01;78.84;102083.53;10528009;28;20059;-76
2022/07/12 20:09:04;;;;;;;9.27;3.63;;;;;;;19.72;78.19;102084.50;10534812;28;20114;-76
2022/07/12 20:14:04;;;;;;;8.57;5.07;;;;;;;19.46;77.87;102079.31;10525821;28;20040;-76
2022/07/12 20:19:05;;;;;;;6.10;3.38;;;;;;;19.38;78.01;102070.22;10494888;28;20059;-76
2022/07/12 20:24:06;;;;;;;8.43;4.80;;;;;;;19.35;79.83;102072.78;10561123;28;20044;-76
2022/07/12 20:29:06;;;;;;;11.20;5.40;;;;;;;19.29;78.33;102064.63;10527142;28;20125;-76
2022/07/12 20:34:25;;;;;;;6.35;4.00;;;;;;;19.25;76.84;102053.00;10533352;28;20062;-76
2022/07/12 20:39:27;;;;;;;7.95;5.10;;;;;;;19.29;77.93;102054.00;10553358;28;20035;-77
2022/07/12 20:44:27;;;;;;;7.63;4.03;;;;;;;19.28;76.96;102045.13;10540072;28;20032;-76
2022/07/12 20:49:28;;;;;;;5.97;3.75;;;;;;;19.29;76.52;102041.63;10529693;28;20495;-76
2022/07/12 20:54:29;;;;;;;5.63;4.32;;;;;;;19.28;76.52;102041.59;10539874;28;20130;-76
2022/07/12 20:59:29;;;;;;;7.90;4.05;;;;;;;19.29;76.52;102044.28;10491622;28;20059;-75
2022/07/12 21:04:30;;;;;;;5.45;3.55;;;;;;;19.29;75.19;102049.59;10514058;28;20044;-76
2022/07/12 21:09:31;;;;;;;5.93;3.10;;;;;;;19.23;75.05;102038.78;10549027;28;20077;-75
2022/07/12 21:14:31;;;;;;;5.15;3.40;;;;;;;19.18;75.55;102051.00;10560137;28;20491;-75
2022/07/12 21:19:32;;;;;;;5.82;3.80;;;;;;;19.14;76.81;102055.34;10529816;28;20039;-75
2022/07/12 21:24:32;;;;;;;5.00;3.50;;;;;;;19.11;76.86;102059.63;10541781;28;20115;-75
2022/07/12 21:29:34;;;;;;;8.68;4.00;;;;;;;19.00;78.33;102060.19;10507357;28;20036;-75
2022/07/12 21:34:34;;;;;;;6.53;4.53;;;;;;;18.92;78.59;102062.56;10508463;28;20036;-75
2022/07/12 21:39:35;;;;;;;4.90;3.95;;;;;;;18.88;78.37;102067.72;10524550;28;20464;-75
2022/07/12 21:44:35;;;;;;;5.38;4.32;;;;;;;18.83;78.70;102066.66;10509634;28;20040;-75
2022/07/12 21:49:36;;;;;;;5.05;4.05;;;;;;;18.78;79.45;102072.72;10506403;28;20040;-75
2022/07/12 21:54:36;;;;;;;8.38;4.65;;;;;;;18.74;78.88;102060.22;10510241;28;20142;-75
2022/07/12 21:59:37;;;;;;;6.13;3.85;;;;;;;18.68;79.23;102053.81;10531358;28;20130;-75
2022/07/12 22:04:37;;;;;;;5.28;3.97;;;;;;;18.63;79.87;102046.63;10528031;28;20085;-75
2022/07/12 22:09:38;;;;;;;8.43;4.40;;;;;;;18.60;81.56;102051.81;10473831;28;20040;-75
2022/07/12 22:14:38;;;;;;;6.28;3.90;;;;;;;18.57;82.04;102046.41;10562045;28;20044;-75
2022/07/12 22:19:39;;;;;;;8.02;4.15;;;;;;;18.52;82.56;102037.41;10513585;28;20040;-75
2022/07/12 22:24:39;;;;;;;7.85;4.53;;;;;;;18.47;84.97;102031.06;10533266;28;20056;-75
2022/07/12 22:29:40;;;;;;;6.78;4.70;;;;;;;18.40;85.39;102027.28;10555759;28;20043;-75
2022/07/12 22:34:40;;;;;;;15.98;5.53;;;;;;;18.36;81.87;102028.03;10571450;28;20240;-75
2022/07/12 22:39:41;;;;;;;6.53;3.83;;;;;;;18.39;81.13;102027.25;10529392;28;20134;-75
2022/07/12 22:44:42;;;;;;;6.90;4.32;;;;;;;18.41;81.00;102015.81;10573900;28;20450;-75
2022/07/12 22:49:42;;;;;;;10.02;4.55;;;;;;;18.38;81.93;102012.19;10497004;28;20067;-74
2022/07/12 22:54:42;;;;;;;8.43;4.90;;;;;;;18.30;82.51;102001.31;10512412;28;20036;-75
2022/07/12 22:59:43;;;;;;;8.57;5.05;;;;;;;18.21;83.31;102007.22;10552623;28;20043;-75
2022/07/12 23:04:43;;;;;;;7.10;4.93;;;;;;;18.15;84.27;102004.34;10549037;28;20036;-75
2022/07/12 23:09:44;;;;;;;6.78;4.35;;;;;;;18.10;83.55;102020.06;10569762;28;20070;-75
2022/07/12 23:14:44;;;;;;;5.57;4.43;;;;;;;18.07;83.60;102011.13;10571993;28;20046;-75
2022/07/12 23:19:45;;;;;;;6.30;5.10;;;;;;;18.03;83.49;101999.50;10565557;28;20452;-75
2022/07/12 23:24:45;;;;;;;6.20;4.38;;;;;;;18.00;85.78;101992.38;10552505;28;20127;-75
2022/07/12 23:29:46;;;;;;;8.57;5.40;;;;;;;17.91;86.94;101989.38;10529974;28;20878;-75
2022/07/12 23:34:47;;;;;;;8.63;4.68;;;;;;;17.90;86.60;101993.75;10534801;28;20119;-75